Perris, CA (92572)

6:21 AM PDT on August 22, 2014 (GMT -0700)
Perris | Change Station
CLOSE
Current Station
Personal Weather Station
Location: Perris, CA
Elevation: 1453 ft
Nearby Weather Stations

Elev 1453 ft 33.77 °N, 117.23 °W | Updated 6 minutes ago

Clear
Clear
66.0 °F
Feels Like 66.0 °F
N
1.6
Wind Variable Wind from North
Gusts 3.1 mph

Today
High -- | Low -- °F
--% Chance of Precip.
Yesterday
High -- | Low -- °F
Precip. -- in
6:15 AM 7:27 PM
Waning Crescent, 8% visible
Pressure 29.92 in
Visibility 10.0 miles
Clouds Clear
Dew Point 63 °F
Humidity 91%
Rainfall 0.00 in
Snow Depth Not available.
UV 0 out of 12
Pollen 5.40 out of 12
Ozone Good
PM2.5 Good
Flu Activity Not available.
METAR KRIV 221258Z AUTO 20003KT 10SM CLR 19/17 A2996 RMK AO2 SLP132 T01900169

More Conditions Fewer Conditions

Pressure 29.92 in
Visibility 10.0 miles
Clouds Clear
Dew Point 63 °F
Humidity 91%
Rainfall 0.00 in
Snow Depth Not available.
UV 0 out of 12
Pollen 5.40 out of 12
Ozone Good
PM2.5 Good
Flu Activity Not available.
METAR KRIV 221258Z AUTO 20003KT 10SM CLR 19/17 A2996 RMK AO2 SLP132 T01900169

More Conditions Fewer Conditions

10-Day Weather Forecast

Almanac

Astronomy

Aug. 22, 2014 Rise Set
Actual Time 6:15 AM PDT 7:27 PM PDT
Civil Twilight 5:49 AM PDT 7:52 PM PDT
Nautical Twilight 5:18 AM PDT 8:23 PM PDT
Astronomical Twilight 4:46 AM PDT 8:55 PM PDT
Moon 3:45 AM PDT 5:36 PM PDT
Length of Visible Light 14h 03m
Length of Day
13h 11m
Tomorrow will be 1m 55s shorter.
Waning Crescent, 8% of the Moon is Illuminated
Today
Waning Crescent
Aug 25
New
Sep 2
First Quarter
Sep 8
Full
Sep 15
Last Quarter

Today's Extremes

State Highs State Lows

Community

WunderPhotos

Upload Photos

1,746,164 photos uploaded!

Nearby

Air Quality

  Air Quality AQ Index Pollutant
Yesterday Good
PM10
Yesterday Good
OZONE
Current Good
PM2.5
Current Good
OZONE
Friday Good
PM10
Friday Good
OZONE
Friday Good
CO
Friday Good
NO2

Snow Depth

Station Depth Elevation
Leavitt Lake 1 in 9400 ft
Leavitt Meadows 1 in 7200 ft
Summit Meadow 0 in 9122 ft
Ebbetts Pass 0 in 8700 ft
Monitor Pass 0 in 8350 ft

Earthquake Activity

City Distance Mag. Time & Date
Alberto Oviedo Mota, Mexico 157 miles 3.5 3:59 PM PDT
2014-08-17
Alberto Oviedo Mota, Mexico 158 miles 3.2 3:59 PM PDT
2014-08-17
Malibu Beach, California 86 miles 3.4 10:03 AM PDT
2014-08-15
Minimum magnitude displayed is 2.5.

Coastal Water Temperatures

Place Temperature
No Stations Reporting

Nearby Weather Stations